createdAt,value
2019-02-18T00:01:58.551Z,0.0
2019-02-18T00:12:11.867Z,0.0
2019-02-18T00:22:25.141Z,0.0
2019-02-18T00:32:38.150Z,0.0
2019-02-18T00:43:22.964Z,0.0
2019-02-18T00:54:07.682Z,0.0
2019-02-18T01:04:20.767Z,0.0
2019-02-18T01:14:34.008Z,0.0
2019-02-18T01:25:18.927Z,0.0
2019-02-18T01:35:30.381Z,0.0
2019-02-18T01:45:43.342Z,0.0
2019-02-18T01:55:56.349Z,0.0
2019-02-18T02:06:47.126Z,0.0
2019-02-18T02:17:44.727Z,0.0
2019-02-18T02:28:35.647Z,0.0
2019-02-18T02:38:49.486Z,0.0
2019-02-18T02:49:33.820Z,0.0
2019-02-18T03:00:18.493Z,0.0
2019-02-18T03:11:06.475Z,0.0
2019-02-18T03:21:19.527Z,0.0
2019-02-18T03:32:14.489Z,0.0
2019-02-18T03:43:05.751Z,0.0
2019-02-18T03:53:24.135Z,0.0
2019-02-18T04:04:16.328Z,0.0
2019-02-18T04:15:06.644Z,0.0
2019-02-18T04:25:20.521Z,0.0
2019-02-18T04:35:40.415Z,0.0
2019-02-18T04:45:57.996Z,0.0
2019-02-18T04:56:47.237Z,0.0
2019-02-18T05:07:34.955Z,0.0
2019-02-18T05:18:46.694Z,0.0
2019-02-18T05:32:49.432Z,0.0
2019-02-18T05:47:11.249Z,0.0
2019-02-18T05:57:27.869Z,0.0
2019-02-18T06:07:44.367Z,4.0
2019-02-18T06:19:03.544Z,12.0
2019-02-18T06:29:55.677Z,60.0
2019-02-18T06:40:17.330Z,200.0
2019-02-18T06:50:37.166Z,472.0
2019-02-18T07:01:24.995Z,892.0
2019-02-18T07:11:38.701Z,1356.0
2019-02-18T07:22:09.357Z,1844.0
2019-02-18T07:33:06.664Z,2560.0
2019-02-18T07:43:25.362Z,3176.0
2019-02-18T07:54:21.647Z,25280.0
2019-02-18T08:05:30.806Z,29184.0
2019-02-18T08:16:15.839Z,34560.0
2019-02-18T08:26:29.876Z,38496.0
2019-02-18T08:37:15.272Z,43296.0
2019-02-18T08:48:03.222Z,50432.0
2019-02-18T08:58:17.518Z,52160.0
2019-02-18T09:08:31.697Z,5580.0
2019-02-18T09:19:16.960Z,5644.0
2019-02-18T09:30:01.537Z,5880.0
2019-02-18T09:40:15.054Z,6220.0
2019-02-18T09:50:28.410Z,6636.0
2019-02-18T10:00:42.361Z,7132.0
2019-02-18T10:10:55.958Z,75616.0
2019-02-18T10:21:07.121Z,68160.0
2019-02-18T10:31:18.310Z,67296.0
2019-02-18T10:41:31.432Z,74016.0
2019-02-18T10:51:44.714Z,76288.0
2019-02-18T11:02:30.308Z,79488.0
2019-02-18T11:12:43.600Z,80736.0
2019-02-18T11:22:56.960Z,84128.0
2019-02-18T11:33:08.381Z,83008.0
2019-02-18T11:43:55.832Z,87904.0
2019-02-18T11:54:07.146Z,80352.0
2019-02-18T12:04:20.509Z,85440.0
2019-02-18T12:14:31.615Z,87360.0
2019-02-18T12:25:35.374Z,76096.0
2019-02-18T12:36:21.500Z,77152.0
2019-02-18T12:47:10.927Z,76672.0
2019-02-18T12:57:22.228Z,85984.0
2019-02-18T13:07:33.441Z,79488.0
2019-02-18T13:18:28.596Z,80576.0
2019-02-18T13:29:14.056Z,74336.0
2019-02-18T13:39:25.790Z,76448.0
2019-02-18T13:50:05.063Z,71744.0
2019-02-18T14:00:18.590Z,55200.0
2019-02-18T14:11:05.816Z,56768.0
2019-02-18T14:24:51.563Z,57504.0
2019-02-18T14:37:05.762Z,55648.0
2019-02-18T15:00:24.018Z,14784.0
2019-02-18T15:11:09.391Z,13056.0
2019-02-18T21:16:19.329Z,0.0
2019-02-18T21:26:32.896Z,0.0
2019-02-18T21:37:18.605Z,0.0
2019-02-18T21:47:29.985Z,0.0
2019-02-18T21:57:44.000Z,0.0
2019-02-18T22:07:55.190Z,0.0
2019-02-18T22:18:06.448Z,0.0
2019-02-18T22:28:17.926Z,0.0
2019-02-18T22:39:03.611Z,0.0
2019-02-18T22:49:48.843Z,0.0
2019-02-18T23:00:34.044Z,0.0
2019-02-18T23:10:44.964Z,0.0
2019-02-18T23:21:29.973Z,0.0
2019-02-18T23:31:41.370Z,0.0
2019-02-18T23:42:25.795Z,0.0
2019-02-18T23:52:39.248Z,0.0
